Time,TemperatureF,DewpointF,PressureIn,WindDirection,WindDirectionDegrees,WindSpeedMPH,WindSpeedGustMPH,Humidity,HourlyPrecipIn,Conditions,Clouds,dailyrainin,SoftwareType,DateUTC
2013-03-29 00:09:00,62.1,57.0,30.12,South,179,3.0,7.0,82,0.00,,,0.00,weatherlink.com 1.10,2013-03-29 05:09:00,
2013-03-29 00:24:00,61.6,56.0,30.12,SSE,168,3.0,6.0,83,0.00,,,0.00,weatherlink.com 1.10,2013-03-29 05:24:00,
2013-03-29 00:39:00,61.1,56.0,30.12,SSE,168,2.0,5.0,84,0.00,,,0.00,weatherlink.com 1.10,2013-03-29 05:39:00,
2013-03-29 00:54:00,61.0,56.0,30.12,South,174,3.0,6.0,84,0.00,,,0.00,weatherlink.com 1.10,2013-03-29 05:54:00,
2013-03-29 01:09:00,60.6,56.0,30.12,South,175,5.0,5.0,85,0.00,,,0.00,weatherlink.com 1.10,2013-03-29 06:09:00,
2013-03-29 01:24:00,60.2,56.0,30.13,South,172,3.0,4.0,85,0.00,,,0.00,weatherlink.com 1.10,2013-03-29 06:24:00,
2013-03-29 01:39:00,60.3,56.0,30.13,South,174,3.0,7.0,86,0.00,,,0.00,weatherlink.com 1.10,2013-03-29 06:39:00,
2013-03-29 01:54:00,59.2,56.0,30.13,SSE,164,2.0,5.0,88,0.00,,,0.00,weatherlink.com 1.10,2013-03-29 06:54:00,
2013-03-29 02:09:00,60.1,56.0,30.14,South,177,3.0,7.0,87,0.00,,,0.00,weatherlink.com 1.10,2013-03-29 07:09:00,
2013-03-29 02:24:00,60.4,57.0,30.14,South,170,5.0,8.0,87,0.00,,,0.00,weatherlink.com 1.10,2013-03-29 07:24:00,
2013-03-29 02:39:00,60.4,57.0,30.14,South,171,2.0,7.0,87,0.00,,,0.00,weatherlink.com 1.10,2013-03-29 07:39:00,
2013-03-29 02:54:00,60.7,57.0,30.14,SSE,165,5.0,7.0,87,0.00,,,0.00,weatherlink.com 1.10,2013-03-29 07:54:00,
2013-03-29 03:09:00,60.7,57.0,30.13,SSE,167,3.0,7.0,87,0.00,,,0.00,weatherlink.com 1.10,2013-03-29 08:09:00,
2013-03-29 03:39:00,59.6,56.0,30.12,South,177,6.0,7.0,88,0.00,,,0.00,weatherlink.com 1.10,2013-03-29 08:39:00,
2013-03-29 03:54:00,58.7,56.0,30.12,South,170,5.0,6.0,89,0.00,,,0.00,weatherlink.com 1.10,2013-03-29 08:54:00,
2013-03-29 04:09:00,58.1,55.0,30.12,South,178,3.0,6.0,90,0.00,,,0.00,weatherlink.com 1.10,2013-03-29 09:09:00,
2013-03-29 04:24:00,58.0,55.0,30.11,South,176,2.0,6.0,91,0.00,,,0.00,weatherlink.com 1.10,2013-03-29 09:24:00,
2013-03-29 04:39:00,57.5,55.0,30.11,South,176,2.0,4.0,91,0.00,,,0.00,weatherlink.com 1.10,2013-03-29 09:39:00,
2013-03-29 04:54:00,57.2,55.0,30.10,South,173,2.0,5.0,92,0.00,,,0.00,weatherlink.com 1.10,2013-03-29 09:54:00,
2013-03-29 05:09:00,57.0,55.0,30.10,South,171,2.0,4.0,92,0.00,,,0.00,weatherlink.com 1.10,2013-03-29 10:09:00,
2013-03-29 05:24:00,56.4,55.0,30.10,South,171,2.0,4.0,93,0.00,,,0.00,weatherlink.com 1.10,2013-03-29 10:24:00,
2013-03-29 05:40:00,56.3,54.0,30.10,South,171,1.0,4.0,93,0.00,,,0.00,weatherlink.com 1.10,2013-03-29 10:40:00,
2013-03-29 05:54:00,55.9,54.0,30.11,South,172,1.0,4.0,93,0.00,,,0.00,weatherlink.com 1.10,2013-03-29 10:54:00,
2013-03-29 06:09:00,55.4,54.0,30.11,South,172,2.0,3.0,93,0.00,,,0.00,weatherlink.com 1.10,2013-03-29 11:09:00,
2013-03-29 06:24:00,56.1,54.0,30.11,South,187,2.0,5.0,94,0.00,,,0.00,weatherlink.com 1.10,2013-03-29 11:24:00,
2013-03-29 06:39:00,56.0,54.0,30.11,South,185,1.0,4.0,94,0.00,,,0.00,weatherlink.com 1.10,2013-03-29 11:39:00,
2013-03-29 06:54:00,55.4,54.0,30.12,South,185,2.0,3.0,94,0.00,,,0.00,weatherlink.com 1.10,2013-03-29 11:54:00,
2013-03-29 07:10:00,54.8,53.0,30.12,South,185,0.0,3.0,94,0.00,,,0.00,weatherlink.com 1.10,2013-03-29 12:10:00,
2013-03-29 07:25:00,54.1,53.0,30.12,South,185,0.0,0.0,94,0.00,,,0.00,weatherlink.com 1.10,2013-03-29 12:25:00,
2013-03-29 07:40:00,54.2,53.0,30.12,South,185,0.0,0.0,94,0.00,,,0.00,weatherlink.com 1.10,2013-03-29 12:40:00,
2013-03-29 07:55:00,55.2,54.0,30.13,South,185,2.0,3.0,95,0.00,,,0.00,weatherlink.com 1.10,2013-03-29 12:55:00,
2013-03-29 08:10:00,56.8,55.0,30.14,South,181,1.0,6.0,95,0.00,,,0.00,weatherlink.com 1.10,2013-03-29 13:10:00,
2013-03-29 08:25:00,57.6,56.0,30.14,South,180,1.0,4.0,95,0.00,,,0.00,weatherlink.com 1.10,2013-03-29 13:25:00,
2013-03-29 08:40:00,59.0,58.0,30.14,South,180,6.0,8.0,95,0.00,,,0.00,weatherlink.com 1.10,2013-03-29 13:40:00,
2013-03-29 08:55:00,60.5,59.0,30.14,SSE,162,2.0,8.0,93,0.00,,,0.00,weatherlink.com 1.10,2013-03-29 13:55:00,
2013-03-29 09:10:00,62.3,59.0,30.13,South,172,5.0,9.0,89,0.00,,,0.00,weatherlink.com 1.10,2013-03-29 14:10:00,
2013-03-29 09:25:00,63.2,59.0,30.14,South,181,6.0,12.0,86,0.00,,,0.00,weatherlink.com 1.10,2013-03-29 14:25:00,
2013-03-29 09:40:00,64.4,60.0,30.14,SSE,164,6.0,14.0,84,0.00,,,0.00,weatherlink.com 1.10,2013-03-29 14:40:00,
2013-03-29 09:55:00,65.1,59.0,30.14,South,176,10.0,17.0,80,0.00,,,0.00,weatherlink.com 1.10,2013-03-29 14:55:00,
2013-03-29 10:10:00,66.1,59.0,30.14,South,191,8.0,16.0,78,0.00,,,0.00,weatherlink.com 1.10,2013-03-29 15:10:00,
2013-03-29 10:25:00,67.1,58.0,30.14,South,174,12.0,21.0,72,0.00,,,0.00,weatherlink.com 1.10,2013-03-29 15:25:00,
2013-03-29 10:40:00,67.3,57.0,30.14,SSW,202,14.0,20.0,70,0.00,,,0.00,weatherlink.com 1.10,2013-03-29 15:40:00,
2013-03-29 10:55:00,69.5,59.0,30.15,SSW,201,8.0,17.0,69,0.00,,,0.00,weatherlink.com 1.10,2013-03-29 15:55:00,
2013-03-29 11:10:00,70.2,58.0,30.15,South,188,9.0,20.0,66,0.00,,,0.00,weatherlink.com 1.10,2013-03-29 16:10:00,
2013-03-29 11:25:00,71.2,58.0,30.15,South,179,5.0,15.0,64,0.00,,,0.00,weatherlink.com 1.10,2013-03-29 16:25:00,
2013-03-29 11:40:00,70.7,58.0,30.14,South,169,5.0,17.0,64,0.00,,,0.00,weatherlink.com 1.10,2013-03-29 16:40:00,
2013-03-29 11:55:00,73.1,59.0,30.14,South,176,9.0,18.0,61,0.00,,,0.00,weatherlink.com 1.10,2013-03-29 16:55:00,
2013-03-29 12:10:00,72.8,58.0,30.13,South,187,6.0,20.0,61,0.00,,,0.00,weatherlink.com 1.10,2013-03-29 17:10:00,
2013-03-29 12:25:00,73.2,59.0,30.12,SSE,168,9.0,18.0,61,0.00,,,0.00,weatherlink.com 1.10,2013-03-29 17:25:00,
2013-03-29 12:40:00,74.6,58.0,30.12,South,177,10.0,15.0,57,0.00,,,0.00,weatherlink.com 1.10,2013-03-29 17:40:00,
2013-03-29 12:55:00,75.4,57.0,30.11,SSW,197,2.0,20.0,54,0.00,,,0.00,weatherlink.com 1.10,2013-03-29 17:55:00,
2013-03-29 13:10:00,73.7,57.0,30.10,SSE,164,7.0,19.0,57,0.00,,,0.00,weatherlink.com 1.10,2013-03-29 18:10:00,
2013-03-29 13:25:00,75.9,58.0,30.10,SSE,150,7.0,18.0,55,0.00,,,0.00,weatherlink.com 1.10,2013-03-29 18:25:00,
2013-03-29 13:40:00,77.1,58.0,30.08,SSE,168,7.0,19.0,52,0.00,,,0.00,weatherlink.com 1.10,2013-03-29 18:40:00,
2013-03-29 13:55:00,76.1,58.0,30.07,South,174,3.0,22.0,54,0.00,,,0.00,weatherlink.com 1.10,2013-03-29 18:55:00,
2013-03-29 14:10:00,77.2,58.0,30.07,SE,126,8.0,20.0,52,0.00,,,0.00,weatherlink.com 1.10,2013-03-29 19:10:00,
2013-03-29 14:25:00,77.0,57.0,30.07,South,179,6.0,18.0,51,0.00,,,0.00,weatherlink.com 1.10,2013-03-29 19:25:00,
2013-03-29 14:40:00,76.3,57.0,30.07,South,186,7.0,15.0,52,0.00,,,0.00,weatherlink.com 1.10,2013-03-29 19:40:00,
2013-03-29 14:55:00,75.8,57.0,30.06,South,173,9.0,16.0,53,0.00,,,0.00,weatherlink.com 1.10,2013-03-29 19:55:00,
2013-03-29 15:11:00,75.5,58.0,30.06,South,181,5.0,19.0,54,0.00,,,0.00,weatherlink.com 1.10,2013-03-29 20:11:00,
2013-03-29 15:25:00,75.9,58.0,30.06,SSE,166,9.0,15.0,54,0.00,,,0.00,weatherlink.com 1.10,2013-03-29 20:25:00,
2013-03-29 15:41:00,75.5,58.0,30.05,South,181,12.0,16.0,54,0.00,,,0.00,weatherlink.com 1.10,2013-03-29 20:41:00,
2013-03-29 15:56:00,75.6,58.0,30.05,SSW,193,13.0,14.0,54,0.00,,,0.00,weatherlink.com 1.10,2013-03-29 20:56:00,
2013-03-29 16:11:00,75.8,57.0,30.04,SSE,164,5.0,13.0,53,0.00,,,0.00,weatherlink.com 1.10,2013-03-29 21:11:00,
2013-03-29 16:26:00,75.8,58.0,30.04,SE,139,8.0,14.0,55,0.00,,,0.00,weatherlink.com 1.10,2013-03-29 21:26:00,
2013-03-29 16:41:00,75.2,58.0,30.03,SSE,152,5.0,16.0,55,0.00,,,0.00,weatherlink.com 1.10,2013-03-29 21:41:00,
2013-03-29 16:56:00,75.6,58.0,30.02,SSE,156,4.0,17.0,55,0.00,,,0.00,weatherlink.com 1.10,2013-03-29 21:56:00,
2013-03-29 17:26:00,75.5,58.0,30.02,SSE,162,8.0,14.0,54,0.00,,,0.00,weatherlink.com 1.10,2013-03-29 22:26:00,
2013-03-29 17:41:00,75.5,58.0,30.02,SSE,153,9.0,12.0,55,0.00,,,0.00,weatherlink.com 1.10,2013-03-29 22:41:00,
2013-03-29 17:56:00,74.9,58.0,30.02,SE,141,4.0,14.0,55,0.00,,,0.00,weatherlink.com 1.10,2013-03-29 22:56:00,
2013-03-29 18:41:00,75.3,57.0,30.03,South,178,7.0,14.0,54,0.00,,,0.00,weatherlink.com 1.10,2013-03-29 23:41:00,
2013-03-29 19:00:00,74.9,57.0,30.03,South,189,9.0,15.0,54,0.00,,,0.00,weatherlink.com 1.10,2013-03-30 00:00:00,
2013-03-29 19:11:00,74.6,57.0,30.02,SSE,164,3.0,13.0,55,0.00,,,0.00,weatherlink.com 1.10,2013-03-30 00:11:00,
2013-03-29 19:26:00,74.2,57.0,30.02,SSE,168,7.0,11.0,56,0.00,,,0.00,weatherlink.com 1.10,2013-03-30 00:26:00,
2013-03-29 19:41:00,73.6,57.0,30.02,South,185,5.0,10.0,57,0.00,,,0.00,weatherlink.com 1.10,2013-03-30 00:41:00,
2013-03-29 19:56:00,72.9,57.0,30.03,SSE,150,4.0,12.0,58,0.00,,,0.00,weatherlink.com 1.10,2013-03-30 00:56:00,
2013-03-29 20:11:00,72.3,58.0,30.04,SSE,164,3.0,9.0,60,0.00,,,0.00,weatherlink.com 1.10,2013-03-30 01:11:00,
2013-03-29 20:26:00,71.8,57.0,30.04,SSE,153,3.0,5.0,61,0.00,,,0.00,weatherlink.com 1.10,2013-03-30 01:26:00,
2013-03-29 20:41:00,71.0,57.0,30.04,SE,146,2.0,4.0,62,0.00,,,0.00,weatherlink.com 1.10,2013-03-30 01:41:00,
2013-03-29 20:56:00,70.5,58.0,30.05,SE,143,0.0,4.0,64,0.00,,,0.00,weatherlink.com 1.10,2013-03-30 01:56:00,
2013-03-29 21:11:00,70.4,58.0,30.05,SE,137,4.0,8.0,64,0.00,,,0.00,weatherlink.com 1.10,2013-03-30 02:11:00,
2013-03-29 21:26:00,70.4,58.0,30.05,SE,141,3.0,7.0,64,0.00,,,0.00,weatherlink.com 1.10,2013-03-30 02:26:00,
2013-03-29 21:41:00,70.2,57.0,30.05,SE,127,5.0,9.0,64,0.00,,,0.00,weatherlink.com 1.10,2013-03-30 02:41:00,
2013-03-29 21:56:00,69.9,58.0,30.05,ESE,118,7.0,8.0,65,0.00,,,0.00,weatherlink.com 1.10,2013-03-30 02:56:00,
2013-03-29 22:11:00,69.8,57.0,30.05,SE,127,6.0,13.0,65,0.00,,,0.00,weatherlink.com 1.10,2013-03-30 03:11:00,
2013-03-29 22:26:00,69.4,57.0,30.05,SE,133,7.0,13.0,65,0.00,,,0.00,weatherlink.com 1.10,2013-03-30 03:26:00,
2013-03-29 22:41:00,68.7,57.0,30.05,South,181,5.0,12.0,67,0.00,,,0.00,weatherlink.com 1.10,2013-03-30 03:41:00,
2013-03-29 22:56:00,68.3,57.0,30.05,SSE,148,5.0,10.0,68,0.00,,,0.00,weatherlink.com 1.10,2013-03-30 03:56:00,
2013-03-29 23:11:00,68.1,57.0,30.05,SE,145,2.0,11.0,68,0.00,,,0.00,weatherlink.com 1.10,2013-03-30 04:11:00,
2013-03-29 23:26:00,68.0,57.0,30.05,South,181,4.0,14.0,68,0.00,,,0.00,weatherlink.com 1.10,2013-03-30 04:26:00,
2013-03-29 23:41:00,68.0,57.0,30.05,SSE,164,10.0,19.0,68,0.00,,,0.00,weatherlink.com 1.10,2013-03-30 04:41:00,
2013-03-29 23:56:00,68.0,57.0,30.05,South,180,9.0,17.0,69,0.00,,,0.00,weatherlink.com 1.10,2013-03-30 04:56:00,